Time;durP1;ratioP1;P1;durP2;ratioP2;P2;SDS_P1;SDS_P2;PMS_P1;PMS_P2;Temp;Humidity;BMP_temperature;BMP_pressure;BME280_temperature;BME280_humidity;BME280_pressure;Samples;Min_cycle;Max_cycle;Signal;HPM_P1;HPM_P2
2024/01/24 00:00:13;;;;;;;;;;;17.10;52.60;;;;;;5071956;28;42859;-80
2024/01/24 00:02:38;;;;;;;;;;;17.10;52.60;;;;;;5066849;28;42898;-79
2024/01/24 00:05:04;;;;;;;;;;;17.10;52.60;;;;;;5065628;28;43554;-80
2024/01/24 00:07:31;;;;;;;;;;;17.10;52.70;;;;;;5065660;28;43206;-80
2024/01/24 00:09:56;;;;;;;;;;;17.10;52.60;;;;;;5066105;28;42927;-80
2024/01/24 00:12:22;;;;;;;;;;;17.10;52.70;;;;;;5065822;28;42797;-81
2024/01/24 00:14:47;;;;;;;;;;;17.10;52.70;;;;;;5065478;28;42883;-78
2024/01/24 00:17:13;;;;;;;;;;;17.10;52.70;;;;;;5065536;28;42927;-78
2024/01/24 00:19:38;;;;;;;;;;;17.10;52.70;;;;;;5065443;28;43689;-80
2024/01/24 00:22:04;;;;;;;;;;;17.10;52.70;;;;;;5065720;28;43007;-81
2024/01/24 00:24:29;;;;;;;;;;;17.10;52.70;;;;;;5065970;28;42959;-80
2024/01/24 00:26:55;;;;;;;;;;;17.10;52.90;;;;;;5064243;28;42951;-81
2024/01/24 00:29:20;;;;;;;;;;;17.10;52.90;;;;;;5065243;28;43648;-80
2024/01/24 00:31:49;;;;;;;;;;;17.00;52.70;;;;;;5066019;28;42763;-81
2024/01/24 00:34:17;;;;;;;;;;;17.10;52.70;;;;;;5064243;28;44701;-80
2024/01/24 00:36:43;;;;;;;;;;;17.10;52.80;;;;;;5065283;28;42955;-80
2024/01/24 00:39:09;;;;;;;;;;;17.00;52.70;;;;;;5064763;28;43713;-81
2024/01/24 00:41:34;;;;;;;;;;;17.10;52.80;;;;;;5065216;28;42990;-81
2024/01/24 00:44:00;;;;;;;;;;;17.00;52.90;;;;;;5064683;28;43019;-80
2024/01/24 00:46:25;;;;;;;;;;;17.00;52.70;;;;;;5065291;28;42954;-81
2024/01/24 00:48:51;;;;;;;;;;;17.00;52.80;;;;;;5065407;28;42781;-79
2024/01/24 00:51:16;;;;;;;;;;;17.00;52.90;;;;;;5064859;28;42871;-76
2024/01/24 00:53:43;;;;;;;;;;;17.00;52.90;;;;;;5064770;28;43717;-79
2024/01/24 00:56:08;;;;;;;;;;;17.00;52.90;;;;;;5065576;28;42994;-78
2024/01/24 00:58:34;;;;;;;;;;;17.00;53.00;;;;;;5065410;28;43661;-79
2024/01/24 01:00:59;;;;;;;;;;;17.00;53.40;;;;;;5065366;28;43002;-80
2024/01/24 01:03:25;;;;;;;;;;;17.00;52.90;;;;;;5065724;28;43033;-81
2024/01/24 01:05:50;;;;;;;;;;;17.10;53.00;;;;;;5065016;28;42985;-80
2024/01/24 01:08:16;;;;;;;;;;;17.00;53.00;;;;;;5064463;28;43436;-80
2024/01/24 01:10:42;;;;;;;;;;;17.00;53.00;;;;;;5064823;28;43104;-80
2024/01/24 01:13:08;;;;;;;;;;;17.00;53.00;;;;;;5064156;28;43555;-80
2024/01/24 01:15:33;;;;;;;;;;;17.00;52.50;;;;;;5063497;28;42979;-79
2024/01/24 01:17:59;;;;;;;;;;;17.00;53.40;;;;;;5064459;28;43452;-75
2024/01/24 01:20:24;;;;;;;;;;;17.00;53.00;;;;;;5064460;28;43129;-79
2024/01/24 01:22:50;;;;;;;;;;;17.00;52.90;;;;;;5064206;28;43446;-77
2024/01/24 01:25:15;;;;;;;;;;;17.00;52.90;;;;;;5065177;28;42962;-81
2024/01/24 01:27:41;;;;;;;;;;;17.00;53.00;;;;;;5064850;28;43416;-81
2024/01/24 01:30:06;;;;;;;;;;;17.00;53.00;;;;;;5064731;28;42938;-80
2024/01/24 01:32:32;;;;;;;;;;;17.00;52.90;;;;;;5063783;28;42902;-80
2024/01/24 01:34:59;;;;;;;;;;;17.00;52.90;;;;;;5064348;28;42864;-77
2024/01/24 01:37:25;;;;;;;;;;;17.00;52.90;;;;;;5064858;28;42903;-80
2024/01/24 01:39:50;;;;;;;;;;;17.00;52.90;;;;;;5064626;28;42957;-80
2024/01/24 01:42:16;;;;;;;;;;;17.00;53.00;;;;;;5064501;28;43899;-80
2024/01/24 01:44:44;;;;;;;;;;;17.00;53.00;;;;;;5064516;28;43032;-79
2024/01/24 01:47:10;;;;;;;;;;;17.00;52.90;;;;;;5064458;28;43457;-80
2024/01/24 01:49:36;;;;;;;;;;;17.00;53.00;;;;;;5064409;28;42856;-77
2024/01/24 01:52:02;;;;;;;;;;;17.00;53.10;;;;;;5064693;28;43769;-80
2024/01/24 01:54:27;;;;;;;;;;;17.00;53.00;;;;;;5064657;28;42930;-79
2024/01/24 01:56:53;;;;;;;;;;;17.00;53.00;;;;;;5067752;28;43308;-76
2024/01/24 01:59:19;;;;;;;;;;;17.00;53.10;;;;;;5068136;28;42891;-75
2024/01/24 02:01:45;;;;;;;;;;;17.00;53.10;;;;;;5067840;28;42995;-79
2024/01/24 02:04:11;;;;;;;;;;;17.00;52.80;;;;;;5068025;28;42933;-77
2024/01/24 02:06:36;;;;;;;;;;;17.00;52.90;;;;;;5068018;28;43698;-81
2024/01/24 02:09:02;;;;;;;;;;;17.00;52.90;;;;;;5067656;28;43080;-79
2024/01/24 02:11:28;;;;;;;;;;;17.00;53.00;;;;;;5067095;28;44379;-78
2024/01/24 02:13:59;;;;;;;;;;;17.00;53.00;;;;;;5067561;28;42921;-80
2024/01/24 02:16:25;;;;;;;;;;;18.10;53.40;;;;;;5068430;28;42950;-75
2024/01/24 02:18:50;;;;;;;;;;;17.00;52.90;;;;;;5072085;28;43050;-80
2024/01/24 02:21:16;;;;;;;;;;;16.90;52.80;;;;;;5067282;28;43409;-75
2024/01/24 02:23:42;;;;;;;;;;;16.90;52.80;;;;;;5067562;28;42958;-75
2024/01/24 02:26:09;;;;;;;;;;;17.00;52.90;;;;;;5067322;28;42855;-81
2024/01/24 02:28:34;;;;;;;;;;;17.00;52.90;;;;;;5067425;28;43078;-75
2024/01/24 02:31:00;;;;;;;;;;;16.90;52.80;;;;;;5065776;28;45362;-75
2024/01/24 02:33:25;;;;;;;;;;;16.90;53.00;;;;;;5067492;28;43133;-80
2024/01/24 02:35:51;;;;;;;;;;;16.90;52.80;;;;;;5067360;28;42856;-78
2024/01/24 02:38:17;;;;;;;;;;;16.90;52.90;;;;;;5067458;28;43133;-81
2024/01/24 02:40:42;;;;;;;;;;;16.90;52.90;;;;;;5067659;28;42982;-81
2024/01/24 02:43:08;;;;;;;;;;;17.00;53.00;;;;;;5067809;28;42915;-75
2024/01/24 02:45:33;;;;;;;;;;;17.00;52.90;;;;;;5067177;28;42926;-75
2024/01/24 02:47:59;;;;;;;;;;;16.90;53.00;;;;;;5067360;28;42889;-80
2024/01/24 02:50:25;;;;;;;;;;;17.00;53.00;;;;;;5066625;28;43396;-81
2024/01/24 02:52:51;;;;;;;;;;;16.90;52.90;;;;;;5066991;28;42884;-75
2024/01/24 02:55:16;;;;;;;;;;;16.90;53.00;;;;;;5067369;28;44063;-76
2024/01/24 02:57:45;;;;;;;;;;;16.90;52.90;;;;;;5067091;28;42904;-80
2024/01/24 03:00:12;;;;;;;;;;;16.90;52.90;;;;;;5065492;28;45758;-81
2024/01/24 03:02:38;;;;;;;;;;;16.90;52.90;;;;;;5066779;28;42902;-75
2024/01/24 03:05:05;;;;;;;;;;;16.90;53.00;;;;;;5066519;28;42902;-77
2024/01/24 03:07:31;;;;;;;;;;;16.90;52.90;;;;;;5067024;28;43074;-81
2024/01/24 03:09:57;;;;;;;;;;;16.90;53.00;;;;;;5062889;28;43013;-81
2024/01/24 03:12:22;;;;;;;;;;;16.90;52.90;;;;;;5078669;28;43067;-76
2024/01/24 03:14:48;;;;;;;;;;;16.90;52.90;;;;;;5085946;28;43642;-75
2024/01/24 03:17:13;;;;;;;;;;;16.90;53.40;;;;;;5087030;28;42847;-81
2024/01/24 03:19:39;;;;;;;;;;;16.90;52.90;;;;;;5086744;28;43114;-76
2024/01/24 03:22:04;;;;;;;;;;;16.90;53.10;;;;;;5087543;27;42860;-80
2024/01/24 03:24:30;;;;;;;;;;;16.90;53.00;;;;;;5087035;28;42872;-77
2024/01/24 03:26:55;;;;;;;;;;;16.90;52.90;;;;;;5086584;28;42977;-75
2024/01/24 03:29:21;;;;;;;;;;;16.90;53.00;;;;;;5086447;28;43574;-80
2024/01/24 03:31:46;;;;;;;;;;;16.90;53.00;;;;;;5086825;28;42958;-75
2024/01/24 03:34:12;;;;;;;;;;;17.00;53.10;;;;;;5086976;28;42810;-80
2024/01/24 03:36:37;;;;;;;;;;;16.90;53.00;;;;;;5086660;28;43092;-77
2024/01/24 03:39:09;;;;;;;;;;;16.90;53.00;;;;;;5086474;28;42854;-75
2024/01/24 03:41:40;;;;;;;;;;;16.90;53.00;;;;;;5085756;27;43022;-75
2024/01/24 03:44:06;;;;;;;;;;;16.90;53.00;;;;;;5086062;28;43507;-81
2024/01/24 03:46:31;;;;;;;;;;;17.00;53.10;;;;;;5085263;28;42996;-80
2024/01/24 03:48:57;;;;;;;;;;;16.90;53.00;;;;;;5085986;28;43058;-80
2024/01/24 03:51:23;;;;;;;;;;;16.90;53.00;;;;;;5085888;28;43030;-75
2024/01/24 03:53:48;;;;;;;;;;;16.90;53.00;;;;;;5085748;27;43660;-80
2024/01/24 03:56:14;;;;;;;;;;;16.90;53.50;;;;;;5086181;28;42941;-77
2024/01/24 03:58:39;;;;;;;;;;;16.90;53.00;;;;;;5085244;28;42974;-78
2024/01/24 04:01:05;;;;;;;;;;;16.90;53.10;;;;;;5086284;28;43038;-81
2024/01/24 04:03:30;;;;;;;;;;;16.90;53.00;;;;;;5086373;28;43948;-81
2024/01/24 04:05:56;;;;;;;;;;;16.90;53.00;;;;;;5086168;28;42894;-79
2024/01/24 04:08:21;;;;;;;;;;;16.90;53.10;;;;;;5085998;28;42986;-80
2024/01/24 04:10:47;;;;;;;;;;;16.90;53.20;;;;;;5086495;27;42798;-80
2024/01/24 04:13:13;;;;;;;;;;;16.90;53.20;;;;;;5086202;27;42959;-80
2024/01/24 04:15:39;;;;;;;;;;;16.90;53.10;;;;;;5086074;28;42858;-75
2024/01/24 04:18:04;;;;;;;;;;;16.90;53.10;;;;;;5085447;28;43792;-81
2024/01/24 04:20:30;;;;;;;;;;;16.90;53.10;;;;;;5084025;27;43015;-81
2024/01/24 04:22:55;;;;;;;;;;;16.90;53.20;;;;;;5085016;28;42960;-81
2024/01/24 04:25:21;;;;;;;;;;;16.90;53.00;;;;;;5084536;28;43060;-79
2024/01/24 04:27:46;;;;;;;;;;;16.90;53.20;;;;;;5085522;28;42945;-79
2024/01/24 04:30:12;;;;;;;;;;;16.90;53.00;;;;;;5085948;28;43000;-80
2024/01/24 04:32:38;;;;;;;;;;;16.90;53.00;;;;;;5085152;28;45003;-81
2024/01/24 04:35:04;;;;;;;;;;;16.90;53.00;;;;;;5089253;28;42810;-74
2024/01/24 04:37:29;;;;;;;;;;;16.90;53.00;;;;;;5088443;28;43605;-79
2024/01/24 04:39:54;;;;;;;;;;;16.90;53.00;;;;;;5085643;28;43020;-79
2024/01/24 04:42:20;;;;;;;;;;;16.90;53.10;;;;;;5085558;28;42838;-75
2024/01/24 04:44:45;;;;;;;;;;;16.90;53.00;;;;;;5085676;28;42976;-79
2024/01/24 04:47:14;;;;;;;;;;;16.90;53.10;;;;;;5085193;28;42925;-80
2024/01/24 04:49:40;;;;;;;;;;;19.20;54.20;;;;;;5079722;28;43017;-80
2024/01/24 04:52:05;;;;;;;;;;;16.90;53.00;;;;;;5082706;28;44066;-79
2024/01/24 04:54:34;;;;;;;;;;;16.90;53.00;;;;;;5084889;28;43002;-78
2024/01/24 04:57:01;;;;;;;;;;;16.90;53.00;;;;;;5082420;28;43486;-76
2024/01/24 04:59:28;;;;;;;;;;;16.90;53.00;;;;;;5084660;27;42927;-75
2024/01/24 05:01:53;;;;;;;;;;;16.90;53.10;;;;;;5081458;28;43343;-78
2024/01/24 05:04:19;;;;;;;;;;;16.80;53.00;;;;;;5079947;28;43086;-80
2024/01/24 05:06:44;;;;;;;;;;;16.90;53.00;;;;;;5076429;28;43667;-75
2024/01/24 05:09:10;;;;;;;;;;;16.90;53.10;;;;;;5073580;28;42919;-80
2024/01/24 05:11:35;;;;;;;;;;;16.90;53.00;;;;;;5073371;28;42873;-75
2024/01/24 05:14:01;;;;;;;;;;;16.90;53.00;;;;;;5074433;28;42994;-78
2024/01/24 05:16:28;;;;;;;;;;;16.80;53.00;;;;;;5078887;28;43046;-80
2024/01/24 05:18:54;;;;;;;;;;;16.80;52.90;;;;;;5078574;27;43060;-80
2024/01/24 05:21:20;;;;;;;;;;;16.80;52.50;;;;;;5075952;27;43805;-80
2024/01/24 05:23:46;;;;;;;;;;;16.90;53.20;;;;;;5064278;28;43008;-76
2024/01/24 05:26:11;;;;;;;;;;;16.80;53.00;;;;;;5064487;28;43560;-80
2024/01/24 05:28:37;;;;;;;;;;;16.90;53.20;;;;;;5065389;28;42917;-81
2024/01/24 05:31:03;;;;;;;;;;;16.80;53.00;;;;;;5084681;28;43632;-75
2024/01/24 05:33:28;;;;;;;;;;;16.90;53.00;;;;;;5078626;27;43095;-75
2024/01/24 05:35:54;;;;;;;;;;;16.80;53.00;;;;;;5083178;28;43015;-75
2024/01/24 05:38:19;;;;;;;;;;;16.90;53.00;;;;;;5087501;28;43012;-76
2024/01/24 05:40:44;;;;;;;;;;;16.90;53.00;;;;;;5085629;28;42996;-80
2024/01/24 05:43:10;;;;;;;;;;;16.90;53.00;;;;;;5080911;28;43078;-81
2024/01/24 05:45:35;;;;;;;;;;;16.80;53.00;;;;;;5078293;28;42897;-81
2024/01/24 05:48:01;;;;;;;;;;;16.90;53.10;;;;;;5083406;28;42813;-80
2024/01/24 05:50:27;;;;;;;;;;;16.90;53.10;;;;;;5082013;27;44689;-81
2024/01/24 05:52:52;;;;;;;;;;;16.90;53.30;;;;;;5099585;27;43012;-79
2024/01/24 05:55:18;;;;;;;;;;;16.90;53.30;;;;;;5083822;28;42823;-81
2024/01/24 05:57:46;;;;;;;;;;;16.90;53.30;;;;;;5087388;27;43174;-82
2024/01/24 06:00:14;;;;;;;;;;;16.90;53.30;;;;;;5087342;27;42987;-80
2024/01/24 06:02:40;;;;;;;;;;;16.90;53.90;;;;;;5087674;27;42885;-77
2024/01/24 06:05:07;;;;;;;;;;;16.90;52.90;;;;;;5086664;28;42982;-81
2024/01/24 06:07:33;;;;;;;;;;;16.80;44.60;;;;;;5087226;27;42969;-79
2024/01/24 06:09:59;;;;;;;;;;;16.50;40.80;;;;;;5083277;28;42920;-76
2024/01/24 06:12:24;;;;;;;;;;;16.30;41.80;;;;;;5086704;27;43095;-76
2024/01/24 06:14:51;;;;;;;;;;;16.20;44.90;;;;;;5085120;28;43226;-76
2024/01/24 06:17:17;;;;;;;;;;;16.20;46.50;;;;;;5087044;27;42944;-80
2024/01/24 06:19:43;;;;;;;;;;;16.20;47.40;;;;;;5085903;28;42835;-78
2024/01/24 06:22:09;;;;;;;;;;;16.30;47.70;;;;;;5086857;27;43043;-75
2024/01/24 06:24:35;;;;;;;;;;;16.30;47.90;;;;;;5085697;27;44084;-81
2024/01/24 06:27:00;;;;;;;;;;;16.40;48.10;;;;;;5086787;27;42886;-76
2024/01/24 06:29:26;;;;;;;;;;;16.50;48.20;;;;;;5085653;28;43920;-81
2024/01/24 06:31:51;;;;;;;;;;;16.50;48.20;;;;;;5087696;28;42877;-79
2024/01/24 06:34:17;;;;;;;;;;;16.50;48.40;;;;;;5086343;28;43792;-81
2024/01/24 06:36:42;;;;;;;;;;;16.60;48.50;;;;;;5086418;28;42885;-81
2024/01/24 06:39:09;;;;;;;;;;;16.50;48.50;;;;;;5086128;28;43082;-79
2024/01/24 06:41:35;;;;;;;;;;;16.60;48.70;;;;;;5086227;27;43040;-80
2024/01/24 06:44:01;;;;;;;;;;;16.60;49.00;;;;;;5087299;28;42928;-78
2024/01/24 06:46:26;;;;;;;;;;;16.60;49.00;;;;;;5085423;28;43152;-80
2024/01/24 06:48:52;;;;;;;;;;;16.60;49.20;;;;;;5086465;27;43245;-79
2024/01/24 06:51:18;;;;;;;;;;;16.60;49.30;;;;;;5086797;28;42796;-77
2024/01/24 06:53:43;;;;;;;;;;;16.60;49.30;;;;;;5090532;27;43955;-79
2024/01/24 06:56:09;;;;;;;;;;;16.60;49.40;;;;;;5087373;28;43189;-78
2024/01/24 06:58:36;;;;;;;;;;;16.60;49.50;;;;;;5086880;28;43759;-76
2024/01/24 07:01:02;;;;;;;;;;;16.60;49.60;;;;;;5086020;27;43034;-81
2024/01/24 07:03:27;;;;;;;;;;;16.60;49.70;;;;;;5085500;28;43907;-81
2024/01/24 07:05:53;;;;;;;;;;;16.60;49.60;;;;;;5086404;28;43571;-82
2024/01/24 07:08:18;;;;;;;;;;;14.70;49.80;;;;;;5086753;27;42910;-80
2024/01/24 07:10:44;;;;;;;;;;;16.70;49.70;;;;;;5085530;28;42875;-82
2024/01/24 07:13:10;;;;;;;;;;;16.60;49.80;;;;;;5086520;27;43719;-81
2024/01/24 07:15:35;;;;;;;;;;;17.20;50.70;;;;;;5086518;28;42957;-81
2024/01/24 07:18:01;;;;;;;;;;;16.70;49.80;;;;;;5086658;28;43407;-81
2024/01/24 07:20:26;;;;;;;;;;;16.60;49.80;;;;;;5086987;28;42940;-78
2024/01/24 07:22:52;;;;;;;;;;;16.70;50.00;;;;;;5086215;27;42987;-80
2024/01/24 07:25:21;;;;;;;;;;;16.60;49.40;;;;;;5084999;28;43187;-82
2024/01/24 07:27:47;;;;;;;;;;;16.20;49.60;;;;;;5087571;28;43106;-75
2024/01/24 07:30:13;;;;;;;;;;;16.60;49.80;;;;;;5086994;27;43084;-81
2024/01/24 07:32:40;;;;;;;;;;;16.70;50.00;;;;;;5086460;27;43478;-76
2024/01/24 07:35:06;;;;;;;;;;;16.60;49.90;;;;;;5085152;28;42844;-80
2024/01/24 07:37:32;;;;;;;;;;;16.70;50.00;;;;;;5086538;27;44013;-76
2024/01/24 07:39:57;;;;;;;;;;;16.70;50.10;;;;;;5086893;27;42961;-78
2024/01/24 07:42:23;;;;;;;;;;;16.00;49.70;;;;;;5086018;28;43008;-80
2024/01/24 07:44:48;;;;;;;;;;;16.70;50.00;;;;;;5086699;28;42819;-76
2024/01/24 07:47:15;;;;;;;;;;;16.60;50.00;;;;;;5086429;28;42944;-77
2024/01/24 07:49:40;;;;;;;;;;;16.20;50.00;;;;;;5086449;27;42996;-79
2024/01/24 07:52:07;;;;;;;;;;;16.70;50.10;;;;;;5085787;27;42856;-79
2024/01/24 07:54:32;;;;;;;;;;;16.70;50.10;;;;;;5085729;27;42967;-79
2024/01/24 07:56:58;;;;;;;;;;;16.70;50.10;;;;;;5086479;28;43563;-82
2024/01/24 07:59:23;;;;;;;;;;;16.70;50.10;;;;;;5086283;28;43021;-82
2024/01/24 08:01:49;;;;;;;;;;;16.70;81.20;;;;;;5084806;28;44432;-81
2024/01/24 08:04:14;;;;;;;;;;;16.60;50.10;;;;;;5086205;27;42992;-76
2024/01/24 08:06:40;;;;;;;;;;;16.70;50.20;;;;;;5086289;28;42894;-76
2024/01/24 08:09:06;;;;;;;;;;;16.70;50.10;;;;;;5086231;27;43000;-75
2024/01/24 08:11:32;;;;;;;;;;;16.70;50.10;;;;;;5084837;28;42993;-82
2024/01/24 08:13:57;;;;;;;;;;;16.60;50.10;;;;;;5086423;28;42935;-75
2024/01/24 08:16:23;;;;;;;;;;;16.70;50.10;;;;;;5085909;27;43264;-81
2024/01/24 08:18:48;;;;;;;;;;;16.70;50.20;;;;;;5086130;28;42997;-75
2024/01/24 08:21:15;;;;;;;;;;;16.60;50.10;;;;;;5085533;28;43596;-82
2024/01/24 08:23:40;;;;;;;;;;;16.60;50.20;;;;;;5084941;28;43097;-81
2024/01/24 08:26:08;;;;;;;;;;;16.70;50.20;;;;;;5086239;28;42936;-82
2024/01/24 08:28:34;;;;;;;;;;;16.70;50.20;;;;;;5086085;27;43059;-81
2024/01/24 08:31:00;;;;;;;;;;;16.60;51.60;;;;;;5084321;28;44428;-80
2024/01/24 08:33:25;;;;;;;;;;;16.60;50.20;;;;;;5085936;28;43012;-80
2024/01/24 08:35:51;;;;;;;;;;;16.70;50.20;;;;;;5085738;28;43627;-81
2024/01/24 08:38:16;;;;;;;;;;;16.70;50.30;;;;;;5086070;28;43035;-81
2024/01/24 08:40:42;;;;;;;;;;;16.70;50.30;;;;;;5085905;28;42959;-79
2024/01/24 08:43:07;;;;;;;;;;;16.60;50.20;;;;;;5085654;27;42993;-80
2024/01/24 08:45:33;;;;;;;;;;;16.60;50.20;;;;;;5085500;28;43704;-81
2024/01/24 08:47:58;;;;;;;;;;;16.70;50.30;;;;;;5084034;28;43139;-81
2024/01/24 08:50:24;;;;;;;;;;;16.70;50.20;;;;;;5085740;28;42861;-81
2024/01/24 08:52:51;;;;;;;;;;;16.60;50.10;;;;;;5085044;27;42878;-81
2024/01/24 08:55:17;;;;;;;;;;;16.60;50.10;;;;;;5084718;28;43558;-81
2024/01/24 08:57:43;;;;;;;;;;;12.40;47.60;;;;;;5083639;28;43070;-81
2024/01/24 09:00:12;;;;;;;;;;;16.60;50.30;;;;;;5085326;27;43450;-81
2024/01/24 09:02:38;;;;;;;;;;;16.70;50.20;;;;;;5085580;27;43003;-81
2024/01/24 09:05:05;;;;;;;;;;;16.70;50.30;;;;;;5083847;28;43367;-78
2024/01/24 09:07:30;;;;;;;;;;;16.60;50.20;;;;;;5087157;27;42900;-81
2024/01/24 09:09:56;;;;;;;;;;;16.60;50.40;;;;;;5094533;28;43698;-82
2024/01/24 09:12:22;;;;;;;;;;;16.60;50.40;;;;;;5089558;28;43050;-81
2024/01/24 09:14:47;;;;;;;;;;;16.60;51.60;;;;;;5085192;27;42983;-82
2024/01/24 09:17:13;;;;;;;;;;;16.60;50.30;;;;;;5085184;28;42854;-78
2024/01/24 09:19:40;;;;;;;;;;;16.60;49.70;;;;;;5083175;28;44431;-80
2024/01/24 09:22:06;;;;;;;;;;;16.60;50.20;;;;;;5084190;28;43096;-77
2024/01/24 09:24:32;;;;;;;;;;;16.70;50.80;;;;;;5085272;27;43760;-81
2024/01/24 09:26:57;;;;;;;;;;;16.70;50.30;;;;;;5083800;28;43090;-76
2024/01/24 09:29:23;;;;;;;;;;;16.70;50.40;;;;;;5085319;28;42934;-82
2024/01/24 09:31:48;;;;;;;;;;;16.60;50.30;;;;;;5084939;28;42983;-76
2024/01/24 09:34:14;;;;;;;;;;;16.70;50.30;;;;;;5084678;28;43345;-81
2024/01/24 09:36:40;;;;;;;;;;;16.60;50.20;;;;;;5085061;27;42878;-81
2024/01/24 09:39:07;;;;;;;;;;;16.70;50.40;;;;;;5085076;28;42959;-81
2024/01/24 09:41:37;;;;;;;;;;;16.60;50.30;;;;;;5084388;27;42930;-81
2024/01/24 09:44:04;;;;;;;;;;;16.60;50.20;;;;;;5084609;28;43021;-82
2024/01/24 09:46:30;;;;;;;;;;;16.60;50.20;;;;;;5084855;27;42960;-81
2024/01/24 09:48:56;;;;;;;;;;;16.60;50.20;;;;;;5084262;27;43506;-81
2024/01/24 09:51:22;;;;;;;;;;;16.70;50.30;;;;;;5085233;27;42966;-80
2024/01/24 09:53:49;;;;;;;;;;;16.60;50.20;;;;;;5084879;27;42931;-82
2024/01/24 09:56:15;;;;;;;;;;;17.20;50.60;;;;;;5084566;27;43049;-81
2024/01/24 09:58:40;;;;;;;;;;;16.60;50.20;;;;;;5084482;27;43736;-81
2024/01/24 10:01:08;;;;;;;;;;;16.60;50.20;;;;;;5085198;28;42972;-81
2024/01/24 10:03:34;;;;;;;;;;;16.70;50.30;;;;;;5084738;27;43172;-81
2024/01/24 10:06:00;;;;;;;;;;;16.60;49.70;;;;;;5083284;28;42809;-81
2024/01/24 10:08:26;;;;;;;;;;;16.60;50.50;;;;;;5084713;28;43993;-82
2024/01/24 10:10:51;;;;;;;;;;;16.60;50.40;;;;;;5084935;28;42963;-82
2024/01/24 10:13:17;;;;;;;;;;;16.60;50.30;;;;;;5084648;28;43523;-81
2024/01/24 10:15:42;;;;;;;;;;;16.60;50.40;;;;;;5085264;27;42994;-82
2024/01/24 10:18:08;;;;;;;;;;;16.60;50.30;;;;;;5088458;28;43069;-82
2024/01/24 10:20:34;;;;;;;;;;;16.60;49.80;;;;;;5086662;28;43040;-81
2024/01/24 10:23:00;;;;;;;;;;;16.50;49.70;;;;;;5087161;27;43999;-75
2024/01/24 10:25:25;;;;;;;;;;;16.60;50.30;;;;;;5088182;27;43173;-81
2024/01/24 10:27:51;;;;;;;;;;;16.60;50.30;;;;;;5088017;28;43317;-81
2024/01/24 10:30:16;;;;;;;;;;;16.60;50.20;;;;;;5088690;28;42921;-81
2024/01/24 10:32:47;;;;;;;;;;;16.60;50.40;;;;;;5088056;28;44140;-80
2024/01/24 10:35:14;;;;;;;;;;;16.60;50.30;;;;;;5088550;27;42983;-81
2024/01/24 10:37:43;;;;;;;;;;;16.60;50.30;;;;;;5088341;27;42859;-82
2024/01/24 10:40:13;;;;;;;;;;;16.60;50.30;;;;;;5088956;27;42809;-81
2024/01/24 10:42:42;;;;;;;;;;;16.60;50.30;;;;;;5088570;27;42851;-79
2024/01/24 10:45:08;;;;;;;;;;;16.60;50.30;;;;;;5087607;27;42752;-81
2024/01/24 10:47:34;;;;;;;;;;;16.60;50.40;;;;;;5086807;27;44634;-75
2024/01/24 10:50:04;;;;;;;;;;;16.60;50.30;;;;;;5086365;27;42991;-81
2024/01/24 10:52:30;;;;;;;;;;;16.60;50.30;;;;;;5084962;28;45112;-79
2024/01/24 10:54:58;;;;;;;;;;;16.60;50.30;;;;;;5086939;27;43143;-75
2024/01/24 10:57:24;;;;;;;;;;;16.60;50.30;;;;;;5087698;27;42924;-82
2024/01/24 10:59:50;;;;;;;;;;;16.60;50.30;;;;;;5087501;27;42995;-81
2024/01/24 11:02:16;;;;;;;;;;;16.00;49.60;;;;;;5085053;28;45430;-82
2024/01/24 11:04:42;;;;;;;;;;;16.60;49.80;;;;;;5086673;27;42921;-80
2024/01/24 11:07:11;;;;;;;;;;;16.60;50.30;;;;;;5087445;27;42862;-78
2024/01/24 11:09:53;;;;;;;;;;;16.60;50.20;;;;;;5102909;27;42949;-80
2024/01/24 11:12:19;;;;;;;;;;;16.60;50.20;;;;;;5087113;27;42924;-80
2024/01/24 11:14:46;;;;;;;;;;;16.60;50.20;;;;;;5087652;27;42985;-80
2024/01/24 11:17:11;;;;;;;;;;;16.60;50.30;;;;;;5087070;27;43636;-78
2024/01/24 11:19:37;;;;;;;;;;;16.60;50.20;;;;;;5086702;27;42839;-81
2024/01/24 11:22:08;;;;;;;;;;;16.60;50.30;;;;;;5086884;28;42934;-81
2024/01/24 11:24:54;;;;;;;;;;;16.60;50.30;;;;;;5089577;27;43035;-78
2024/01/24 11:27:24;;;;;;;;;;;16.60;50.20;;;;;;5088049;28;44372;-77
2024/01/24 11:29:50;;;;;;;;;;;16.50;50.10;;;;;;5087088;27;42799;-77
2024/01/24 11:32:35;;;;;;;;;;;16.60;50.30;;;;;;5086351;27;42987;-81
2024/01/24 11:35:19;;;;;;;;;;;16.50;50.70;;;;;;5086142;28;42973;-76
2024/01/24 11:37:44;;;;;;;;;;;16.60;50.20;;;;;;5086799;28;42993;-77
2024/01/24 11:40:11;;;;;;;;;;;16.60;49.80;;;;;;5086805;28;42860;-79
2024/01/24 11:42:36;;;;;;;;;;;16.60;50.40;;;;;;5088309;27;42966;-81
2024/01/24 11:45:18;;;;;;;;;;;16.60;50.30;;;;;;5087626;27;42835;-80
2024/01/24 11:47:44;;;;;;;;;;;16.60;50.20;;;;;;5086808;27;43309;-76
2024/01/24 11:50:11;;;;;;;;;;;16.60;50.70;;;;;;5087048;27;42839;-77
2024/01/24 11:52:36;;;;;;;;;;;16.60;50.20;;;;;;5086450;27;43112;-76
2024/01/24 11:55:02;;;;;;;;;;;16.60;50.20;;;;;;5085728;27;42997;-76
2024/01/24 11:57:29;;;;;;;;;;;16.60;50.20;;;;;;5085742;28;43329;-76
2024/01/24 11:59:55;;;;;;;;;;;16.60;50.30;;;;;;5086129;27;42947;-76
2024/01/24 12:02:21;;;;;;;;;;;16.60;50.20;;;;;;5085932;27;43862;-80
2024/01/24 12:04:50;;;;;;;;;;;16.60;50.30;;;;;;5086665;28;43118;-78
2024/01/24 12:07:16;;;;;;;;;;;16.60;50.20;;;;;;5086381;27;43129;-76
2024/01/24 12:09:58;;;;;;;;;;;;;;;;;;5084958;28;42883;-81
2024/01/24 12:13:04;;;;;;;;;;;;;;;;;;5086403;28;42867;-77
2024/01/24 12:15:58;;;;;;;;;;;;;;;;;;5086535;28;42947;-81
2024/01/24 12:18:36;;;;;;;;;;;;;;;;;;5085776;27;42856;-79
2024/01/24 12:21:09;;;;;;;;;;;;;;;;;;5085602;28;42953;-80
2024/01/24 12:23:37;;;;;;;;;;;;;;;;;;5085985;27;42805;-77
2024/01/24 12:26:05;;;;;;;;;;;;;;;;;;5084713;28;42809;-76
2024/01/24 12:28:33;;;;;;;;;;;;;;;;;;5085935;28;43120;-77
2024/01/24 12:30:59;;;;;;;;;;;;;;;;;;5085815;28;42889;-75
2024/01/24 12:33:30;;;;;;;;;;;;;;;;;;5086387;28;43084;-81
2024/01/24 12:35:55;;;;;;;;;;;16.70;49.50;;;;;;5086125;28;43043;-81
2024/01/24 12:38:21;;;;;;;;;;;16.70;49.70;;;;;;5085541;28;43806;-80
2024/01/24 12:40:48;;;;;;;;;;;16.70;50.10;;;;;;5086063;27;43062;-76
2024/01/24 12:43:14;;;;;;;;;;;16.60;50.20;;;;;;5085710;27;43734;-81
2024/01/24 12:45:40;;;;;;;;;;;16.60;49.70;;;;;;5085500;27;42786;-76
2024/01/24 12:48:09;;;;;;;;;;;16.60;50.20;;;;;;5086219;27;42709;-81
2024/01/24 12:50:34;;;;;;;;;;;16.60;50.20;;;;;;5085924;27;43082;-79
2024/01/24 12:53:00;;;;;;;;;;;16.60;50.20;;;;;;5085804;28;42774;-76
2024/01/24 12:55:26;;;;;;;;;;;16.60;50.30;;;;;;5085887;28;42938;-81
2024/01/24 12:57:52;;;;;;;;;;;16.60;50.20;;;;;;5083730;28;44710;-79
2024/01/24 13:00:17;;;;;;;;;;;16.60;50.70;;;;;;5085120;28;42963;-79
2024/01/24 13:02:43;;;;;;;;;;;16.70;50.20;;;;;;5085888;27;42818;-76
2024/01/24 13:05:09;;;;;;;;;;;16.60;50.20;;;;;;5086022;28;42900;-78
2024/01/24 13:07:36;;;;;;;;;;;16.60;50.20;;;;;;5085337;27;42871;-81
2024/01/24 13:10:03;;;;;;;;;;;16.60;50.20;;;;;;5085726;27;42892;-81
2024/01/24 13:12:28;;;;;;;;;;;16.60;50.20;;;;;;5085643;27;42882;-79
2024/01/24 13:14:54;;;;;;;;;;;16.60;50.30;;;;;;5085675;28;42975;-80
2024/01/24 13:17:20;;;;;;;;;;;16.70;50.20;;;;;;5085397;28;43363;-80
2024/01/24 13:19:48;;;;;;;;;;;16.60;50.20;;;;;;5085273;27;42843;-78
2024/01/24 13:22:13;;;;;;;;;;;16.60;50.20;;;;;;5085142;27;43742;-82
2024/01/24 13:24:39;;;;;;;;;;;16.60;50.20;;;;;;5085041;28;42941;-76
2024/01/24 13:27:05;;;;;;;;;;;16.60;50.20;;;;;;5085135;28;43502;-81
2024/01/24 13:29:31;;;;;;;;;;;16.60;50.20;;;;;;5085563;27;42892;-78
2024/01/24 13:31:57;;;;;;;;;;;16.60;50.20;;;;;;5084486;27;43041;-81
2024/01/24 13:34:26;;;;;;;;;;;16.60;50.30;;;;;;5085491;28;43105;-79
2024/01/24 13:36:51;;;;;;;;;;;17.10;50.40;;;;;;5085536;27;43336;-77
2024/01/24 13:39:17;;;;;;;;;;;16.70;50.30;;;;;;5086219;27;42742;-76
2024/01/24 13:41:43;;;;;;;;;;;16.60;50.70;;;;;;5090688;28;42944;-80
2024/01/24 13:44:09;;;;;;;;;;;16.60;50.20;;;;;;5085611;28;42931;-75
2024/01/24 13:46:34;;;;;;;;;;;16.60;50.10;;;;;;5084916;27;42865;-75
2024/01/24 13:49:00;;;;;;;;;;;16.60;50.20;;;;;;5085052;27;42942;-79
2024/01/24 13:51:25;;;;;;;;;;;16.60;50.20;;;;;;5085925;27;44318;-75
2024/01/24 13:53:51;;;;;;;;;;;16.70;50.30;;;;;;5087999;28;42933;-77
2024/01/24 13:56:17;;;;;;;;;;;16.60;50.20;;;;;;5088065;28;42959;-76
2024/01/24 13:58:42;;;;;;;;;;;16.60;50.30;;;;;;5088615;27;42930;-77
2024/01/24 14:01:08;;;;;;;;;;;16.70;50.30;;;;;;5088127;27;42987;-81
2024/01/24 14:03:34;;;;;;;;;;;16.60;50.30;;;;;;5088285;27;43265;-78
2024/01/24 14:05:59;;;;;;;;;;;16.60;50.30;;;;;;5088395;28;43131;-80
2024/01/24 14:08:25;;;;;;;;;;;16.60;50.20;;;;;;5087853;27;42974;-81
2024/01/24 14:10:50;;;;;;;;;;;16.60;50.20;;;;;;5087957;28;42818;-77
2024/01/24 14:13:16;;;;;;;;;;;16.60;50.20;;;;;;5088199;28;42833;-78
2024/01/24 14:15:42;;;;;;;;;;;16.70;50.40;;;;;;5088217;27;43310;-75